createdAt,value
2023-04-21T00:01:44.239Z,1012.38
2023-04-21T00:06:56.475Z,1012.32
2023-04-21T00:12:14.412Z,1012.22
2023-04-21T00:17:24.636Z,1012.06
2023-04-21T00:22:36.442Z,1012.12
2023-04-21T00:27:44.095Z,1012.00
2023-04-21T00:32:51.649Z,1011.91
2023-04-21T00:37:59.185Z,1011.87
2023-04-21T00:43:06.621Z,1012.06
2023-04-21T00:48:14.287Z,1011.92
2023-04-21T00:53:22.063Z,1011.78
2023-04-21T00:58:29.653Z,1011.87
2023-04-21T01:03:52.575Z,1011.88
2023-04-21T01:09:00.219Z,1012.01
2023-04-21T01:14:12.763Z,1011.93
2023-04-21T01:19:21.503Z,1011.97
2023-04-21T01:24:32.307Z,1012.01
2023-04-21T01:29:40.309Z,1011.91
2023-04-21T01:34:49.981Z,1011.97
2023-04-21T01:39:57.494Z,1011.98
2023-04-21T01:45:05.193Z,1012.02
2023-04-21T01:50:12.718Z,1011.91
2023-04-21T01:55:24.043Z,1011.94
2023-04-21T02:00:31.695Z,1011.94
2023-04-21T02:05:39.073Z,1011.86
2023-04-21T02:10:48.257Z,1011.94
2023-04-21T02:16:09.780Z,1011.87
2023-04-21T02:21:03.056Z,1011.82
2023-04-21T02:26:10.482Z,1011.89
2023-04-21T02:31:17.898Z,1011.85
2023-04-21T02:36:25.329Z,1011.73
2023-04-21T02:41:32.676Z,1011.71
2023-04-21T02:46:40.012Z,1011.85
2023-04-21T02:51:47.269Z,1011.80
2023-04-21T02:56:54.588Z,1011.95
2023-04-21T03:02:01.978Z,1012.05
2023-04-21T03:07:09.387Z,1012.04
2023-04-21T03:12:16.808Z,1012.09
2023-04-21T03:17:24.477Z,1012.07
2023-04-21T03:22:32.080Z,1012.09
2023-04-21T03:27:39.625Z,1012.20
2023-04-21T03:32:47.306Z,1012.29
2023-04-21T03:37:54.763Z,1012.20
2023-04-21T03:43:02.121Z,1012.20
2023-04-21T03:48:09.679Z,1012.26
2023-04-21T03:53:17.068Z,1012.30
2023-04-21T03:58:24.469Z,1012.27
2023-04-21T04:03:31.862Z,1012.24
2023-04-21T04:08:39.039Z,1012.21
2023-04-21T04:13:46.348Z,1012.12
2023-04-21T04:18:53.774Z,1012.08
2023-04-21T04:24:01.295Z,1012.05
2023-04-21T04:29:08.958Z,1012.02
2023-04-21T04:34:16.548Z,1012.00
2023-04-21T04:39:27.401Z,1011.97
2023-04-21T04:44:32.265Z,1011.87
2023-04-21T04:49:39.681Z,1011.90
2023-04-21T04:54:47.085Z,1011.92
2023-04-21T04:59:54.480Z,1011.82
2023-04-21T05:05:01.766Z,1011.88
2023-04-21T05:10:08.949Z,1011.84
2023-04-21T05:15:16.295Z,1011.84
2023-04-21T05:20:23.587Z,1011.88
2023-04-21T05:25:30.817Z,1011.91
2023-04-21T05:30:38.087Z,1011.91
2023-04-21T05:35:45.331Z,1011.84
2023-04-21T05:40:52.509Z,1011.78
2023-04-21T05:45:59.781Z,1011.72
2023-04-21T05:51:07.007Z,1011.66
2023-04-21T05:56:14.376Z,1011.68
2023-04-21T06:01:21.855Z,1011.72
2023-04-21T06:06:29.261Z,1011.74
2023-04-21T06:11:36.720Z,1011.78
2023-04-21T06:16:44.423Z,1011.78
2023-04-21T06:21:51.668Z,1011.82
2023-04-21T06:26:59.063Z,1011.88
2023-04-21T06:32:06.621Z,1011.89
2023-04-21T06:37:13.851Z,1011.74
2023-04-21T06:42:21.248Z,1011.78
2023-04-21T06:47:28.684Z,1011.69
2023-04-21T06:52:35.866Z,1011.64
2023-04-21T06:57:43.122Z,1011.57
2023-04-21T07:02:50.589Z,1011.53
2023-04-21T07:07:57.783Z,1011.42
2023-04-21T07:13:05.112Z,1011.31
2023-04-21T07:18:12.470Z,1011.34
2023-04-21T07:23:19.660Z,1011.21
2023-04-21T07:28:26.935Z,1011.22
2023-04-21T07:33:34.279Z,1011.20
2023-04-21T07:38:41.491Z,1011.13
2023-04-21T07:43:48.764Z,1011.02
2023-04-21T07:48:56.014Z,1011.04
2023-04-21T07:54:03.419Z,1011.16
2023-04-21T07:59:10.829Z,1011.09
2023-04-21T08:04:18.784Z,1011.05
2023-04-21T08:09:25.960Z,1010.99
2023-04-21T08:14:33.573Z,1011.02
2023-04-21T08:19:41.128Z,1011.00
2023-04-21T08:24:48.533Z,1010.95
2023-04-21T08:29:56.152Z,1010.96
2023-04-21T08:35:03.852Z,1010.98
2023-04-21T08:40:11.296Z,1010.87
2023-04-21T08:45:19.027Z,1010.89
2023-04-21T08:50:26.617Z,1010.86
2023-04-21T08:55:43.154Z,1010.88
2023-04-21T09:00:50.670Z,1010.96
2023-04-21T09:05:58.541Z,1010.92
2023-04-21T09:11:05.715Z,1010.85
2023-04-21T09:16:13.155Z,1010.75
2023-04-21T09:21:20.933Z,1010.72
2023-04-21T09:26:45.950Z,1010.67
2023-04-21T09:31:41.146Z,1010.66
2023-04-21T09:36:48.531Z,1010.67
2023-04-21T09:42:00.676Z,1010.66
2023-04-21T09:47:08.268Z,1010.65
2023-04-21T09:52:19.046Z,1010.65
2023-04-21T09:57:25.837Z,1010.69
2023-04-21T10:02:33.376Z,1010.67
2023-04-21T10:07:40.849Z,1010.59
2023-04-21T10:12:48.167Z,1010.52
2023-04-21T10:17:55.637Z,1010.47
2023-04-21T10:23:02.981Z,1010.45
2023-04-21T10:28:10.350Z,1010.33
2023-04-21T10:33:17.691Z,1010.28
2023-04-21T10:38:25.054Z,1010.27
2023-04-21T10:43:32.323Z,1010.18
2023-04-21T10:48:39.713Z,1010.23
2023-04-21T10:53:47.324Z,1010.15
2023-04-21T10:58:54.612Z,1010.14
2023-04-21T11:04:02.045Z,1010.08
2023-04-21T11:09:09.363Z,1010.00
2023-04-21T11:14:16.275Z,1009.98
2023-04-21T11:19:23.609Z,1009.89
2023-04-21T11:24:30.952Z,1009.80
2023-04-21T11:29:38.136Z,1009.81
2023-04-21T11:34:45.319Z,1009.79
2023-04-21T11:39:52.511Z,1009.71
2023-04-21T11:44:59.663Z,1009.79
2023-04-21T11:50:06.903Z,1009.74
2023-04-21T11:55:14.183Z,1009.71
2023-04-21T12:00:21.323Z,1009.62
2023-04-21T12:05:28.544Z,1009.58
2023-04-21T12:10:35.853Z,1009.63
2023-04-21T12:15:43.090Z,1009.56
2023-04-21T12:20:50.405Z,1009.57
2023-04-21T12:25:57.733Z,1009.57
2023-04-21T12:31:05.254Z,1009.65
2023-04-21T12:36:12.684Z,1009.58
2023-04-21T12:41:20.258Z,1009.51
2023-04-21T12:46:27.625Z,1009.48
2023-04-21T12:51:34.736Z,1009.49
2023-04-21T12:56:42.247Z,1009.34
2023-04-21T13:01:49.684Z,1009.34
2023-04-21T13:06:57.089Z,1009.33
2023-04-21T13:12:04.781Z,1009.35
2023-04-21T13:17:11.853Z,1009.45
2023-04-21T13:22:19.178Z,1009.45
2023-04-21T13:27:26.553Z,1009.23
2023-04-21T13:32:33.997Z,1009.24
2023-04-21T13:37:41.363Z,1009.35
2023-04-21T13:42:48.772Z,1009.33
2023-04-21T13:47:55.921Z,1009.31
2023-04-21T13:53:03.188Z,1009.29
2023-04-21T13:58:10.465Z,1009.35
2023-04-21T14:03:17.823Z,1009.25
2023-04-21T14:08:25.035Z,1009.28
2023-04-21T14:13:37.845Z,1009.25
2023-04-21T14:18:39.594Z,1009.19
2023-04-21T14:23:46.858Z,1009.13
2023-04-21T14:28:54.437Z,1009.11
2023-04-21T14:34:01.667Z,1009.09
2023-04-21T14:39:08.917Z,1009.03
2023-04-21T14:44:16.451Z,1009.03
2023-04-21T14:49:23.719Z,1009.00
2023-04-21T14:54:30.960Z,1009.01
2023-04-21T14:59:38.245Z,1009.09
2023-04-21T15:04:45.411Z,1008.97
2023-04-21T15:09:52.706Z,1009.04
2023-04-21T15:15:00.049Z,1008.99
2023-04-21T15:20:07.313Z,1008.99
2023-04-21T15:25:14.587Z,1009.03
2023-04-21T15:30:21.887Z,1009.11
2023-04-21T15:35:29.053Z,1009.00
2023-04-21T15:40:41.181Z,1009.04
2023-04-21T15:45:43.577Z,1009.07
2023-04-21T15:50:50.723Z,1008.85
2023-04-21T15:55:57.888Z,1008.96
2023-04-21T16:01:05.216Z,1008.97
2023-04-21T16:06:12.624Z,1009.05
2023-04-21T16:11:19.635Z,1008.89
2023-04-21T16:16:26.889Z,1009.10
2023-04-21T16:21:33.984Z,1009.04
2023-04-21T16:26:41.314Z,1009.10
2023-04-21T16:31:48.702Z,1009.11
2023-04-21T16:36:55.866Z,1009.22
2023-04-21T16:42:03.159Z,1009.24
2023-04-21T16:47:10.394Z,1009.28
2023-04-21T16:52:17.509Z,1009.29
2023-04-21T16:57:24.663Z,1009.22
2023-04-21T17:02:32.054Z,1009.37
2023-04-21T17:07:39.060Z,1009.44
2023-04-21T17:12:46.268Z,1009.48
2023-04-21T17:17:53.502Z,1009.59
2023-04-21T17:23:00.718Z,1009.71
2023-04-21T17:28:07.903Z,1009.73
2023-04-21T17:33:17.146Z,1009.74
2023-04-21T17:38:22.264Z,1009.75
2023-04-21T17:43:29.513Z,1009.84
2023-04-21T17:48:36.857Z,1009.87
2023-04-21T17:53:44.000Z,1009.91
2023-04-21T17:58:52.544Z,1009.93
2023-04-21T18:04:01.327Z,1009.88
2023-04-21T18:09:07.507Z,1009.89
2023-04-21T18:14:14.676Z,1009.83
2023-04-21T18:19:21.882Z,1009.82
2023-04-21T18:24:29.047Z,1009.86
2023-04-21T18:29:36.515Z,1009.93
2023-04-21T18:34:43.867Z,1009.95
2023-04-21T18:39:51.139Z,1010.02
2023-04-21T18:44:59.496Z,1010.07
2023-04-21T18:50:06.467Z,1010.14
2023-04-21T18:55:13.950Z,1010.17
2023-04-21T19:00:21.372Z,1010.23
2023-04-21T19:05:30.489Z,1010.31
2023-04-21T19:10:36.599Z,1010.27
2023-04-21T19:15:43.990Z,1010.32
2023-04-21T19:20:51.495Z,1010.25
2023-04-21T19:25:59.120Z,1010.25
2023-04-21T19:31:06.863Z,1010.33
2023-04-21T19:36:14.476Z,1010.29
2023-04-21T19:41:22.173Z,1010.32
2023-04-21T19:46:29.950Z,1010.31
2023-04-21T19:51:37.295Z,1010.35
2023-04-21T19:56:44.848Z,1010.34
2023-04-21T20:01:52.534Z,1010.35
2023-04-21T20:07:00.575Z,1010.35
2023-04-21T20:12:08.071Z,1010.37
2023-04-21T20:17:15.713Z,1010.40
2023-04-21T20:22:23.160Z,1010.41
2023-04-21T20:27:30.379Z,1010.44
2023-04-21T20:32:37.712Z,1010.47
2023-04-21T20:37:45.246Z,1010.38
2023-04-21T20:42:52.663Z,1010.40
2023-04-21T20:47:59.919Z,1010.31
2023-04-21T20:53:07.168Z,1010.38
2023-04-21T20:58:14.355Z,1010.45
2023-04-21T21:03:21.828Z,1010.42
2023-04-21T21:08:28.925Z,1010.42
2023-04-21T21:13:36.097Z,1010.42
2023-04-21T21:18:43.289Z,1010.47
2023-04-21T21:23:50.601Z,1010.55
2023-04-21T21:28:57.738Z,1010.54
2023-04-21T21:34:05.031Z,1010.52
2023-04-21T21:39:12.364Z,1010.56
2023-04-21T21:44:19.614Z,1010.64
2023-04-21T21:49:26.955Z,1010.64
2023-04-21T21:54:34.251Z,1010.66
2023-04-21T21:59:41.729Z,1010.60
2023-04-21T22:04:48.710Z,1010.59
2023-04-21T22:09:55.965Z,1010.60
2023-04-21T22:15:03.126Z,1010.62
2023-04-21T22:20:10.411Z,1010.67
2023-04-21T22:25:17.723Z,1010.68
2023-04-21T22:30:24.962Z,1010.63
2023-04-21T22:35:32.170Z,1010.62
2023-04-21T22:40:39.407Z,1010.64
2023-04-21T22:45:46.650Z,1010.66
2023-04-21T22:50:53.818Z,1010.72
2023-04-21T22:56:01.038Z,1010.77
2023-04-21T23:01:08.335Z,1010.72
2023-04-21T23:06:15.470Z,1010.72
2023-04-21T23:11:22.670Z,1010.68
2023-04-21T23:16:29.868Z,1010.70
2023-04-21T23:21:37.130Z,1010.69
2023-04-21T23:26:44.360Z,1010.66
2023-04-21T23:31:51.626Z,1010.60
2023-04-21T23:36:58.789Z,1010.60
2023-04-21T23:42:06.016Z,1010.64
2023-04-21T23:47:13.162Z,1010.57
2023-04-21T23:52:20.427Z,1010.63
2023-04-21T23:57:27.661Z,1010.53
